createdAt,value
2019-02-06T00:00:56.835Z,0.20
2019-02-06T00:03:26.389Z,0.20
2019-02-06T00:05:55.864Z,0.20
2019-02-06T00:08:25.342Z,0.30
2019-02-06T00:10:54.839Z,0.20
2019-02-06T00:13:24.259Z,0.30
2019-02-06T00:15:54.104Z,0.30
2019-02-06T00:18:23.670Z,0.30
2019-02-06T00:20:53.111Z,0.20
2019-02-06T00:23:22.607Z,0.20
2019-02-06T00:25:52.055Z,0.20
2019-02-06T00:28:21.499Z,0.20
2019-02-06T00:30:51.252Z,0.10
2019-02-06T00:33:20.698Z,0.10
2019-02-06T00:35:50.143Z,0.10
2019-02-06T00:38:19.592Z,0.10
2019-02-06T00:40:49.063Z,0.10
2019-02-06T00:43:18.595Z,0.10
2019-02-06T00:45:48.107Z,0.20
2019-02-06T00:48:17.599Z,0.10
2019-02-06T00:50:47.041Z,0.10
2019-02-06T00:53:16.487Z,0.10
2019-02-06T00:55:45.932Z,0.20
2019-02-06T00:58:15.398Z,0.20
2019-02-06T01:00:45.413Z,0.20
2019-02-06T01:03:15.456Z,0.20
2019-02-06T01:05:44.995Z,0.20
2019-02-06T01:08:14.542Z,0.20
2019-02-06T01:10:43.976Z,0.20
2019-02-06T01:13:13.747Z,0.10
2019-02-06T01:15:43.432Z,0.20
2019-02-06T01:18:12.887Z,0.20
2019-02-06T01:20:42.665Z,0.20
2019-02-06T01:23:12.195Z,0.20
2019-02-06T01:25:41.691Z,0.20
2019-02-06T01:28:11.126Z,0.20
2019-02-06T01:30:48.357Z,0.20
2019-02-06T01:33:17.814Z,0.30
2019-02-06T01:35:50.003Z,0.20
2019-02-06T01:38:18.378Z,0.10
2019-02-06T01:40:47.827Z,0.10
2019-02-06T01:43:17.266Z,0.20
2019-02-06T01:45:46.733Z,0.20
2019-02-06T01:48:16.653Z,0.20
2019-02-06T01:50:46.127Z,0.10
2019-02-06T01:53:15.559Z,0.10
2019-02-06T01:55:45.003Z,0.00
2019-02-06T01:58:14.485Z,0.00
2019-02-06T02:00:43.947Z,0.10
2019-02-06T02:03:13.864Z,0.10
2019-02-06T02:05:43.314Z,0.10
2019-02-06T02:08:13.051Z,0.10
2019-02-06T02:10:42.516Z,0.10
2019-02-06T02:13:11.960Z,0.10
2019-02-06T02:15:41.426Z,0.10
2019-02-06T02:18:10.871Z,0.10
2019-02-06T02:20:40.656Z,0.10
2019-02-06T02:23:10.142Z,0.10
2019-02-06T02:25:39.595Z,0.10
2019-02-06T02:28:09.052Z,0.10
2019-02-06T02:30:50.766Z,0.10
2019-02-06T02:33:20.189Z,0.10
2019-02-06T02:35:49.649Z,0.10
2019-02-06T02:38:19.480Z,0.20
2019-02-06T02:40:48.953Z,0.10
2019-02-06T02:43:18.402Z,0.10
2019-02-06T02:45:47.837Z,0.10
2019-02-06T02:48:17.321Z,0.10
2019-02-06T02:50:46.763Z,0.00
2019-02-06T02:53:16.238Z,0.10
2019-02-06T02:55:45.673Z,0.00
2019-02-06T02:58:15.159Z,0.00
2019-02-06T03:01:05.722Z,0.00
2019-02-06T03:03:41.646Z,-0.10
2019-02-06T03:06:11.549Z,-0.10
2019-02-06T03:08:41.006Z,-0.10
2019-02-06T03:11:10.450Z,0.00
2019-02-06T03:13:39.894Z,-0.10
2019-02-06T03:16:09.319Z,-0.10
2019-02-06T03:18:38.774Z,-0.10
2019-02-06T03:21:08.525Z,-0.10
2019-02-06T03:23:38.061Z,-0.10
2019-02-06T03:26:07.711Z,-0.10
2019-02-06T03:28:38.224Z,-0.10
2019-02-06T03:31:07.688Z,-0.10
2019-02-06T03:33:37.484Z,-0.10
2019-02-06T03:36:07.610Z,-0.20
2019-02-06T03:38:48.121Z,-0.20
2019-02-06T03:41:17.600Z,-0.10
2019-02-06T03:43:47.020Z,-0.10
2019-02-06T03:46:16.461Z,-0.10
2019-02-06T03:48:46.234Z,-0.10
2019-02-06T03:51:15.673Z,-0.10
2019-02-06T03:53:45.162Z,-0.10
2019-02-06T03:56:14.745Z,-0.10
2019-02-06T03:58:44.233Z,-0.10
2019-02-06T04:01:13.703Z,-0.10
2019-02-06T04:03:43.475Z,-0.10
2019-02-06T04:06:12.949Z,-0.10
2019-02-06T04:08:42.835Z,-0.10
2019-02-06T04:11:12.310Z,-0.10
2019-02-06T04:13:42.048Z,-0.10
2019-02-06T04:16:11.540Z,-0.10
2019-02-06T04:18:41.588Z,0.00
2019-02-06T04:21:11.390Z,0.00
2019-02-06T04:23:40.823Z,0.00
2019-02-06T04:26:10.364Z,-0.10
2019-02-06T04:28:39.789Z,-0.10
2019-02-06T04:31:09.235Z,0.00
2019-02-06T04:33:38.972Z,0.00
2019-02-06T04:36:08.446Z,0.00
2019-02-06T04:38:37.939Z,0.00
2019-02-06T04:41:07.383Z,-0.10
2019-02-06T04:43:37.241Z,-0.10
2019-02-06T04:46:07.049Z,-0.10
2019-02-06T04:48:37.820Z,-0.10
2019-02-06T04:51:07.597Z,-0.20
2019-02-06T04:53:37.023Z,-0.20
2019-02-06T04:56:06.485Z,-0.20
2019-02-06T04:58:36.219Z,-0.20
2019-02-06T05:01:05.899Z,-0.20
2019-02-06T05:03:36.153Z,-0.20
2019-02-06T05:06:06.283Z,-0.10
2019-02-06T05:08:35.728Z,-0.20
2019-02-06T05:11:05.474Z,-0.20
2019-02-06T05:13:35.306Z,-0.30
2019-02-06T05:16:04.793Z,-0.40
2019-02-06T05:18:34.675Z,-0.40
2019-02-06T05:21:04.721Z,-0.30
2019-02-06T05:23:34.218Z,-0.40
2019-02-06T05:26:03.652Z,-0.40
2019-02-06T05:28:33.109Z,-0.30
2019-02-06T05:31:02.565Z,-0.40
2019-02-06T05:33:32.498Z,-0.40
2019-02-06T05:36:01.980Z,-0.40
2019-02-06T05:38:31.426Z,-0.40
2019-02-06T05:41:00.958Z,-0.30
2019-02-06T05:43:30.401Z,-0.30
2019-02-06T05:45:59.911Z,-0.30
2019-02-06T05:48:29.871Z,-0.40
2019-02-06T05:50:59.303Z,-0.40
2019-02-06T05:53:28.789Z,-0.40
2019-02-06T05:55:58.527Z,-0.40
2019-02-06T05:58:27.970Z,-0.40
2019-02-06T06:00:57.490Z,-0.40
2019-02-06T06:03:26.932Z,-0.40
2019-02-06T06:05:56.374Z,-0.40
2019-02-06T06:08:25.866Z,-0.50
2019-02-06T06:10:55.468Z,-0.50
2019-02-06T06:13:24.908Z,-0.50
2019-02-06T06:15:54.398Z,-0.50
2019-02-06T06:18:23.901Z,-0.50
2019-02-06T06:20:53.650Z,-0.60
2019-02-06T06:23:23.099Z,-0.50
2019-02-06T06:25:52.600Z,-0.60
2019-02-06T06:28:22.036Z,-0.60
2019-02-06T06:30:51.480Z,-0.60
2019-02-06T06:33:20.983Z,-0.70
2019-02-06T06:35:50.987Z,-0.70
2019-02-06T06:38:20.481Z,-0.60
2019-02-06T06:40:49.951Z,-0.70
2019-02-06T06:43:19.392Z,-0.70
2019-02-06T06:45:48.850Z,-0.70
2019-02-06T06:48:18.331Z,-0.70
2019-02-06T06:50:48.239Z,-0.70
2019-02-06T06:53:18.068Z,-0.70
2019-02-06T06:55:47.494Z,-0.80
2019-02-06T06:58:17.219Z,-0.80
2019-02-06T07:00:46.744Z,-0.80
2019-02-06T07:03:16.194Z,-0.80
2019-02-06T07:05:46.025Z,-0.80
2019-02-06T07:08:15.476Z,-0.80
2019-02-06T07:10:44.923Z,-0.80
2019-02-06T07:13:14.749Z,-0.70
2019-02-06T07:15:44.204Z,-0.80
2019-02-06T07:18:13.683Z,-0.80
2019-02-06T07:20:43.554Z,-0.80
2019-02-06T07:23:13.040Z,-0.80
2019-02-06T07:25:42.474Z,-0.80
2019-02-06T07:28:11.973Z,-0.80
2019-02-06T07:30:41.475Z,-0.80
2019-02-06T07:33:10.922Z,-0.90
2019-02-06T07:35:40.799Z,-0.90
2019-02-06T07:38:22.321Z,-0.90
2019-02-06T07:40:41.742Z,-0.90
2019-02-06T07:43:11.549Z,-0.90
2019-02-06T07:45:40.981Z,-0.90
2019-02-06T07:48:10.736Z,-0.80
2019-02-06T07:50:41.091Z,-0.80
2019-02-06T07:53:10.548Z,-0.70
2019-02-06T07:55:40.027Z,-0.70
2019-02-06T07:58:09.735Z,-0.60
2019-02-06T08:00:39.215Z,-0.60
2019-02-06T08:03:08.667Z,-0.50
2019-02-06T08:05:38.399Z,-0.50
2019-02-06T08:08:07.861Z,-0.40
2019-02-06T08:10:37.315Z,-0.30
2019-02-06T08:13:07.098Z,-0.30
2019-02-06T08:15:37.196Z,-0.20
2019-02-06T08:18:07.678Z,-0.20
2019-02-06T08:20:37.555Z,-0.10
2019-02-06T08:23:07.118Z,-0.10
2019-02-06T08:25:36.596Z,0.00
2019-02-06T08:28:06.039Z,0.10
2019-02-06T08:30:37.757Z,0.20
2019-02-06T08:33:07.235Z,0.30
2019-02-06T08:35:36.911Z,0.30
2019-02-06T08:38:06.369Z,0.40
2019-02-06T08:40:35.948Z,0.50
2019-02-06T08:43:05.578Z,0.70
2019-02-06T08:45:35.074Z,0.80
2019-02-06T08:48:04.566Z,0.70
2019-02-06T08:50:34.272Z,0.60
2019-02-06T08:53:04.240Z,0.60
2019-02-06T08:55:33.824Z,0.70
2019-02-06T08:58:03.711Z,0.60
2019-02-06T09:00:37.765Z,0.60
2019-02-06T09:03:09.022Z,0.70
2019-02-06T09:05:38.558Z,0.70
2019-02-06T09:08:08.400Z,0.80
2019-02-06T09:10:37.954Z,0.90
2019-02-06T09:13:07.668Z,0.90
2019-02-06T09:15:37.302Z,0.80
2019-02-06T09:18:07.607Z,0.80
2019-02-06T09:20:37.087Z,0.80
2019-02-06T09:23:06.557Z,0.90
2019-02-06T09:25:36.014Z,0.90
2019-02-06T09:28:05.502Z,0.90
2019-02-06T09:30:35.229Z,0.90
2019-02-06T09:33:06.723Z,0.80
2019-02-06T09:35:36.164Z,0.70
2019-02-06T09:38:05.753Z,0.60
2019-02-06T09:40:35.222Z,0.50
2019-02-06T09:43:04.797Z,0.50
2019-02-06T09:45:34.331Z,0.50
2019-02-06T09:48:04.343Z,0.50
2019-02-06T09:50:36.062Z,0.60
2019-02-06T09:53:05.543Z,0.70
2019-02-06T09:55:35.399Z,0.80
2019-02-06T09:58:05.880Z,0.80
2019-02-06T10:00:37.447Z,0.90
2019-02-06T10:03:07.608Z,1.00
2019-02-06T10:05:37.106Z,1.00
2019-02-06T10:08:07.102Z,0.90
2019-02-06T10:10:36.555Z,1.00
2019-02-06T10:13:25.097Z,0.90
2019-02-06T10:15:54.519Z,0.70
2019-02-06T10:18:24.364Z,0.40
2019-02-06T10:20:54.319Z,0.30
2019-02-06T10:23:23.798Z,0.20
2019-02-06T10:25:53.866Z,0.20
2019-02-06T10:28:24.361Z,0.30
2019-02-06T10:30:54.432Z,0.40
2019-02-06T10:33:23.889Z,0.50
2019-02-06T10:35:53.323Z,0.60
2019-02-06T10:38:22.783Z,0.60
2019-02-06T10:40:52.262Z,0.60
2019-02-06T10:43:31.636Z,0.60
2019-02-06T10:45:53.269Z,0.60
2019-02-06T10:48:23.147Z,0.60
2019-02-06T10:50:53.785Z,0.80
2019-02-06T10:53:23.229Z,0.80
2019-02-06T10:55:52.721Z,0.70
2019-02-06T10:58:22.349Z,0.70
2019-02-06T11:01:03.097Z,0.60
2019-02-06T11:03:32.902Z,0.60
2019-02-06T11:06:02.337Z,0.70
2019-02-06T11:08:31.760Z,0.80
2019-02-06T11:11:02.437Z,0.90
2019-02-06T11:13:31.977Z,0.90
2019-02-06T11:16:01.491Z,0.80
2019-02-06T11:18:30.926Z,0.70
2019-02-06T11:21:00.360Z,0.80
2019-02-06T11:23:29.811Z,1.00
2019-02-06T11:25:59.586Z,1.20
2019-02-06T11:28:29.067Z,1.30
2019-02-06T11:30:58.541Z,1.30
2019-02-06T11:33:28.011Z,1.40
2019-02-06T11:35:57.797Z,1.40
2019-02-06T11:38:28.002Z,1.30
2019-02-06T11:40:57.667Z,1.40
2019-02-06T11:43:27.134Z,1.40
2019-02-06T11:45:56.946Z,1.40
2019-02-06T11:48:26.391Z,1.50
2019-02-06T11:50:56.637Z,1.40
2019-02-06T11:53:27.326Z,1.30
2019-02-06T11:55:57.524Z,1.10
2019-02-06T11:58:27.370Z,1.00
2019-02-06T12:01:31.139Z,0.90
2019-02-06T12:04:00.665Z,0.80
2019-02-06T12:06:30.139Z,0.70
2019-02-06T12:08:59.638Z,0.60
2019-02-06T12:11:29.087Z,0.50
2019-02-06T12:13:58.549Z,0.60
2019-02-06T12:16:28.137Z,0.70
2019-02-06T12:18:57.653Z,0.70
2019-02-06T12:21:27.539Z,0.70
2019-02-06T12:23:56.981Z,0.70
2019-02-06T12:26:26.492Z,0.80
2019-02-06T12:28:56.038Z,0.80
2019-02-06T12:31:25.659Z,0.70
2019-02-06T12:33:55.424Z,0.60
2019-02-06T12:36:24.852Z,0.50
2019-02-06T12:38:54.303Z,0.40
2019-02-06T12:41:24.043Z,0.40
2019-02-06T12:43:53.487Z,0.30
2019-02-06T12:46:22.913Z,0.30
2019-02-06T12:48:52.426Z,0.40
2019-02-06T12:51:22.572Z,0.40
2019-02-06T12:53:52.020Z,0.40
2019-02-06T12:56:21.455Z,0.40
2019-02-06T12:58:50.892Z,0.30
2019-02-06T13:01:20.699Z,0.30
2019-02-06T13:03:50.145Z,0.40
2019-02-06T13:06:19.924Z,0.60
2019-02-06T13:08:49.680Z,0.80
2019-02-06T13:11:19.532Z,0.80
2019-02-06T13:13:49.149Z,0.90
2019-02-06T13:16:19.089Z,1.00
2019-02-06T13:18:48.537Z,1.00
2019-02-06T13:21:18.651Z,0.90
2019-02-06T13:23:49.549Z,1.10
2019-02-06T13:26:19.127Z,1.10
2019-02-06T13:28:48.629Z,1.10
2019-02-06T13:31:18.072Z,1.00
2019-02-06T13:33:47.497Z,0.90
2019-02-06T13:36:17.254Z,0.90
2019-02-06T13:38:46.727Z,0.90
2019-02-06T13:41:16.162Z,0.80
2019-02-06T13:43:45.665Z,0.70
2019-02-06T13:46:15.205Z,0.60
2019-02-06T13:48:44.649Z,0.50
2019-02-06T13:51:17.567Z,0.40
2019-02-06T13:53:45.570Z,0.30
2019-02-06T13:56:15.297Z,0.20
2019-02-06T13:58:45.048Z,0.20
2019-02-06T14:01:25.083Z,0.10
2019-02-06T14:03:45.621Z,0.10
2019-02-06T14:06:15.142Z,0.10
2019-02-06T14:08:44.716Z,0.10
2019-02-06T14:11:14.255Z,0.10
2019-02-06T14:13:43.999Z,0.10
2019-02-06T14:16:13.650Z,0.10
2019-02-06T14:18:43.124Z,0.00
2019-02-06T14:21:12.688Z,0.00
2019-02-06T14:24:03.230Z,0.00
2019-02-06T14:26:40.827Z,0.00
2019-02-06T14:29:35.277Z,0.00
2019-02-06T14:32:27.890Z,0.00
2019-02-06T14:35:40.527Z,0.00
2019-02-06T14:39:06.215Z,-0.10
2019-02-06T14:42:14.555Z,-0.20
2019-02-06T14:45:18.134Z,-0.40
2019-02-06T14:48:17.732Z,-0.40
2019-02-06T14:51:40.175Z,-0.40
2019-02-06T14:54:41.702Z,-0.50
2019-02-06T14:57:25.745Z,-0.50
2019-02-06T15:00:21.388Z,-0.50
2019-02-06T15:03:31.284Z,-0.60
2019-02-06T15:06:35.413Z,-0.60
2019-02-06T15:09:32.890Z,-0.60
2019-02-06T15:12:32.084Z,-0.70
2019-02-06T15:15:11.752Z,-0.70
2019-02-06T15:18:17.649Z,-0.80
2019-02-06T15:21:31.199Z,-0.90
2019-02-06T15:24:40.780Z,-0.90
2019-02-06T15:27:47.475Z,-0.90
2019-02-06T15:30:36.170Z,-0.90
2019-02-06T15:33:32.097Z,-0.90
2019-02-06T15:36:29.279Z,-1.00
2019-02-06T15:39:34.770Z,-1.00
2019-02-06T15:42:32.615Z,-1.00
2019-02-06T15:45:46.537Z,-1.10
2019-02-06T15:49:15.674Z,-1.10
2019-02-06T15:52:06.416Z,-1.20
2019-02-06T15:55:15.654Z,-1.20
2019-02-06T15:58:15.992Z,-1.20
2019-02-06T16:01:08.610Z,-1.20
2019-02-06T16:04:38.120Z,-1.20
2019-02-06T16:07:48.309Z,-1.30
2019-02-06T16:10:59.716Z,-1.40
2019-02-06T16:14:07.102Z,-1.40
2019-02-06T16:17:15.084Z,-1.40
2019-02-06T16:20:31.112Z,-1.50
2019-02-06T16:23:40.192Z,-1.50
2019-02-06T16:26:55.606Z,-1.50
2019-02-06T16:30:12.164Z,-1.50
2019-02-06T16:33:15.487Z,-1.50
2019-02-06T16:36:19.327Z,-1.50
2019-02-06T16:39:17.914Z,-1.50
2019-02-06T16:42:35.858Z,-1.50
2019-02-06T16:46:06.749Z,-1.60
2019-02-06T16:49:10.599Z,-1.60
2019-02-06T16:52:15.013Z,-1.60
2019-02-06T16:55:35.058Z,-1.70
2019-02-06T16:58:29.873Z,-1.70
2019-02-06T17:01:51.057Z,-1.70
2019-02-06T17:16:08.068Z,-1.70
2019-02-06T17:19:14.725Z,-1.80
2019-02-06T17:22:37.669Z,-1.80
2019-02-06T17:25:35.487Z,-1.80
2019-02-06T17:28:30.257Z,-1.80
2019-02-06T17:31:42.207Z,-1.80
2019-02-06T17:34:55.758Z,-1.80
2019-02-06T17:37:48.638Z,-1.80
2019-02-06T17:40:43.081Z,-1.80
2019-02-06T17:43:42.265Z,-1.80
2019-02-06T17:46:36.141Z,-1.90
2019-02-06T17:49:27.709Z,-1.90
2019-02-06T17:52:37.653Z,-1.90
2019-02-06T17:55:21.392Z,-1.90
2019-02-06T17:57:58.998Z,-1.90
2019-02-06T18:01:06.290Z,-1.90
2019-02-06T18:03:45.735Z,-1.90
2019-02-06T18:06:15.522Z,-2.00
2019-02-06T18:08:56.134Z,-1.90
2019-02-06T18:11:17.308Z,-1.90
2019-02-06T18:13:47.235Z,-1.90
2019-02-06T18:16:21.450Z,-1.90
2019-02-06T18:18:49.533Z,-1.90
2019-02-06T18:21:19.527Z,-1.90
2019-02-06T18:23:49.101Z,-1.90
2019-02-06T18:26:19.574Z,-1.90
2019-02-06T18:28:49.968Z,-1.90
2019-02-06T18:31:19.576Z,-1.90
2019-02-06T18:33:51.177Z,-1.90
2019-02-06T18:36:21.441Z,-1.90
2019-02-06T18:38:52.825Z,-1.90
2019-02-06T18:41:22.653Z,-1.80
2019-02-06T18:43:52.713Z,-1.90
2019-02-06T18:46:22.350Z,-1.90
2019-02-06T18:48:52.045Z,-1.90
2019-02-06T18:51:21.683Z,-1.90
2019-02-06T18:53:53.000Z,-1.80
2019-02-06T18:56:23.834Z,-1.80
2019-02-06T18:58:54.465Z,-1.80
2019-02-06T19:01:24.492Z,-1.80
2019-02-06T19:03:54.538Z,-1.80
2019-02-06T19:06:24.254Z,-1.80
2019-02-06T19:08:54.492Z,-1.80
2019-02-06T19:11:24.640Z,-1.80
2019-02-06T19:13:54.436Z,-1.80
2019-02-06T19:16:24.372Z,-1.80
2019-02-06T19:18:54.363Z,-1.80
2019-02-06T19:21:24.048Z,-1.70
2019-02-06T19:23:55.154Z,-1.80
2019-02-06T19:26:24.784Z,-1.80
2019-02-06T19:28:54.809Z,-1.80
2019-02-06T19:31:25.033Z,-1.80
2019-02-06T19:33:54.621Z,-1.80
2019-02-06T19:36:24.547Z,-1.80
2019-02-06T19:38:54.290Z,-1.80
2019-02-06T19:41:23.976Z,-1.80
2019-02-06T19:43:55.346Z,-1.70
2019-02-06T19:46:26.729Z,-1.70
2019-02-06T19:48:59.093Z,-1.70
2019-02-06T19:51:29.971Z,-1.70
2019-02-06T19:54:00.892Z,-1.70
2019-02-06T19:56:33.318Z,-1.70
2019-02-06T19:59:03.044Z,-1.70
2019-02-06T20:01:34.274Z,-1.70
2019-02-06T20:04:07.918Z,-1.70
2019-02-06T20:06:37.925Z,-1.70
2019-02-06T20:09:12.916Z,-1.70
2019-02-06T20:11:43.171Z,-1.70
2019-02-06T20:14:13.926Z,-1.70
2019-02-06T20:16:43.938Z,-1.70
2019-02-06T20:19:14.024Z,-1.70
2019-02-06T20:21:44.505Z,-1.60
2019-02-06T20:24:14.149Z,-1.70
2019-02-06T20:26:45.191Z,-1.70
2019-02-06T20:29:14.783Z,-1.70
2019-02-06T20:32:00.122Z,-1.70
2019-02-06T20:34:30.168Z,-1.70
2019-02-06T20:37:01.515Z,-1.70
2019-02-06T20:39:34.325Z,-1.70
2019-02-06T20:42:05.768Z,-1.70
2019-02-06T20:44:37.579Z,-1.70
2019-02-06T20:47:07.537Z,-1.70
2019-02-06T20:49:37.553Z,-1.70
2019-02-06T20:52:07.492Z,-1.70
2019-02-06T20:54:39.331Z,-1.70
2019-02-06T20:57:13.594Z,-1.70
2019-02-06T20:59:46.839Z,-1.70
2019-02-06T21:02:16.742Z,-1.80
2019-02-06T21:04:47.087Z,-1.80
2019-02-06T21:07:16.794Z,-1.70
2019-02-06T21:09:46.718Z,-1.70
2019-02-06T21:12:16.302Z,-1.80
2019-02-06T21:14:45.825Z,-1.80
2019-02-06T21:17:15.664Z,-1.80
2019-02-06T21:19:46.265Z,-1.80
2019-02-06T21:22:15.793Z,-1.80
2019-02-06T21:24:45.350Z,-1.80
2019-02-06T21:27:14.905Z,-1.80
2019-02-06T21:29:44.446Z,-1.80
2019-02-06T21:32:14.256Z,-1.80
2019-02-06T21:34:43.812Z,-1.80
2019-02-06T21:37:13.317Z,-1.90
2019-02-06T21:39:42.879Z,-1.90
2019-02-06T21:42:12.388Z,-1.90
2019-02-06T21:44:41.961Z,-1.90
2019-02-06T21:47:12.265Z,-1.90
2019-02-06T21:49:41.807Z,-1.90
2019-02-06T21:52:11.348Z,-2.00
2019-02-06T21:54:40.943Z,-2.00
2019-02-06T21:57:10.589Z,-2.00
2019-02-06T21:59:40.160Z,-2.00
2019-02-06T22:02:10.188Z,-2.10
2019-02-06T22:04:48.231Z,-2.10
2019-02-06T22:07:17.731Z,-2.20
2019-02-06T22:09:47.314Z,-2.20
2019-02-06T22:12:19.184Z,-2.20
2019-02-06T22:14:48.738Z,-2.20
2019-02-06T22:17:18.289Z,-2.20
2019-02-06T22:19:47.865Z,-2.20
2019-02-06T22:22:17.381Z,-2.10
2019-02-06T22:24:47.356Z,-2.10
2019-02-06T22:27:16.919Z,-2.20
2019-02-06T22:29:46.441Z,-2.20
2019-02-06T22:32:16.374Z,-2.20
2019-02-06T22:34:45.936Z,-2.20
2019-02-06T22:37:15.455Z,-2.20
2019-02-06T22:39:45.040Z,-2.30
2019-02-06T22:42:14.892Z,-2.30
2019-02-06T22:44:44.434Z,-2.30
2019-02-06T22:47:13.946Z,-2.20
2019-02-06T22:49:43.553Z,-2.20
2019-02-06T22:52:13.534Z,-2.30
2019-02-06T22:54:43.242Z,-2.30
2019-02-06T22:57:14.978Z,-2.30
2019-02-06T22:59:44.547Z,-2.30
2019-02-06T23:02:14.243Z,-2.30
2019-02-06T23:04:43.762Z,-2.40
2019-02-06T23:07:13.267Z,-2.30
2019-02-06T23:09:42.861Z,-2.40
2019-02-06T23:12:12.498Z,-2.40
2019-02-06T23:14:42.018Z,-2.40
2019-02-06T23:17:11.513Z,-2.40
2019-02-06T23:19:41.410Z,-2.40
2019-02-06T23:22:10.929Z,-2.40
2019-02-06T23:24:40.473Z,-2.40
2019-02-06T23:27:10.444Z,-2.30
2019-02-06T23:29:39.967Z,-2.30
2019-02-06T23:32:09.483Z,-2.40
2019-02-06T23:34:39.018Z,-2.40
2019-02-06T23:37:11.330Z,-2.40
2019-02-06T23:39:39.702Z,-2.40
2019-02-06T23:42:09.240Z,-2.40
2019-02-06T23:44:38.753Z,-2.40
2019-02-06T23:47:08.287Z,-2.50
2019-02-06T23:49:37.875Z,-2.50
2019-02-06T23:52:07.411Z,-2.50
2019-02-06T23:54:37.390Z,-2.50
2019-02-06T23:57:07.308Z,-2.50
2019-02-06T23:59:37.228Z,-2.60
